sensor_id;sensor_type;location;lat;lon;timestamp;P1;durP1;ratioP1;P2;durP2;ratioP2
13866;SDS011;7003;46.982;15.248;2022-11-15T00:01:09;57.30;;;30.43;;
13866;SDS011;7003;46.982;15.248;2022-11-15T00:03:43;49.43;;;27.53;;
13866;SDS011;7003;46.982;15.248;2022-11-15T00:06:10;59.40;;;31.90;;
13866;SDS011;7003;46.982;15.248;2022-11-15T00:08:37;53.60;;;28.33;;
13866;SDS011;7003;46.982;15.248;2022-11-15T00:11:06;52.00;;;28.17;;
13866;SDS011;7003;46.982;15.248;2022-11-15T00:13:33;55.53;;;29.30;;
13866;SDS011;7003;46.982;15.248;2022-11-15T00:16:02;58.33;;;30.60;;
13866;SDS011;7003;46.982;15.248;2022-11-15T00:18:32;56.97;;;29.20;;
13866;SDS011;7003;46.982;15.248;2022-11-15T00:21:03;59.57;;;29.03;;
13866;SDS011;7003;46.982;15.248;2022-11-15T00:23:32;60.40;;;32.63;;
13866;SDS011;7003;46.982;15.248;2022-11-15T00:25:59;63.87;;;31.53;;
13866;SDS011;7003;46.982;15.248;2022-11-15T00:28:26;54.17;;;33.40;;
13866;SDS011;7003;46.982;15.248;2022-11-15T00:30:54;71.40;;;33.97;;
13866;SDS011;7003;46.982;15.248;2022-11-15T00:33:28;61.28;;;31.08;;
13866;SDS011;7003;46.982;15.248;2022-11-15T00:36:02;59.47;;;31.30;;
13866;SDS011;7003;46.982;15.248;2022-11-15T00:38:30;66.13;;;33.43;;
13866;SDS011;7003;46.982;15.248;2022-11-15T00:40:58;61.50;;;30.70;;
13866;SDS011;7003;46.982;15.248;2022-11-15T00:43:25;53.60;;;29.23;;
13866;SDS011;7003;46.982;15.248;2022-11-15T00:45:55;57.97;;;29.60;;
13866;SDS011;7003;46.982;15.248;2022-11-15T00:48:22;63.63;;;32.83;;
13866;SDS011;7003;46.982;15.248;2022-11-15T00:50:51;65.73;;;31.37;;
13866;SDS011;7003;46.982;15.248;2022-11-15T00:53:21;60.03;;;31.63;;
13866;SDS011;7003;46.982;15.248;2022-11-15T00:55:52;66.77;;;29.80;;
13866;SDS011;7003;46.982;15.248;2022-11-15T00:58:21;62.47;;;31.23;;
13866;SDS011;7003;46.982;15.248;2022-11-15T01:00:52;64.27;;;31.80;;
13866;SDS011;7003;46.982;15.248;2022-11-15T01:03:20;59.93;;;30.07;;
13866;SDS011;7003;46.982;15.248;2022-11-15T01:05:47;68.90;;;31.93;;
13866;SDS011;7003;46.982;15.248;2022-11-15T01:08:16;50.53;;;26.50;;
13866;SDS011;7003;46.982;15.248;2022-11-15T01:10:46;42.00;;;22.27;;
13866;SDS011;7003;46.982;15.248;2022-11-15T01:13:14;46.07;;;25.47;;
13866;SDS011;7003;46.982;15.248;2022-11-15T01:15:41;36.97;;;21.80;;
13866;SDS011;7003;46.982;15.248;2022-11-15T01:18:09;40.40;;;23.43;;
13866;SDS011;7003;46.982;15.248;2022-11-15T01:20:38;35.87;;;21.57;;
13866;SDS011;7003;46.982;15.248;2022-11-15T01:23:07;40.47;;;21.93;;
13866;SDS011;7003;46.982;15.248;2022-11-15T01:25:36;42.20;;;23.47;;
13866;SDS011;7003;46.982;15.248;2022-11-15T01:28:06;37.77;;;22.77;;
13866;SDS011;7003;46.982;15.248;2022-11-15T01:30:35;35.67;;;22.50;;
13866;SDS011;7003;46.982;15.248;2022-11-15T01:33:02;26.73;;;21.27;;
13866;SDS011;7003;46.982;15.248;2022-11-15T01:35:32;39.80;;;23.80;;
13866;SDS011;7003;46.982;15.248;2022-11-15T01:37:59;42.77;;;24.07;;
13866;SDS011;7003;46.982;15.248;2022-11-15T01:40:26;36.87;;;23.87;;
13866;SDS011;7003;46.982;15.248;2022-11-15T01:42:57;38.17;;;23.97;;
13866;SDS011;7003;46.982;15.248;2022-11-15T01:45:24;48.03;;;24.77;;
13866;SDS011;7003;46.982;15.248;2022-11-15T01:47:52;37.30;;;23.03;;
13866;SDS011;7003;46.982;15.248;2022-11-15T01:50:21;42.53;;;24.77;;
13866;SDS011;7003;46.982;15.248;2022-11-15T01:52:52;35.23;;;21.77;;
13866;SDS011;7003;46.982;15.248;2022-11-15T01:55:20;35.57;;;23.07;;
13866;SDS011;7003;46.982;15.248;2022-11-15T01:57:50;40.07;;;22.30;;
13866;SDS011;7003;46.982;15.248;2022-11-15T02:00:21;46.03;;;21.20;;
13866;SDS011;7003;46.982;15.248;2022-11-15T02:02:48;33.40;;;22.13;;
13866;SDS011;7003;46.982;15.248;2022-11-15T02:05:15;35.53;;;22.60;;
13866;SDS011;7003;46.982;15.248;2022-11-15T02:07:42;30.57;;;21.53;;
13866;SDS011;7003;46.982;15.248;2022-11-15T02:10:12;38.43;;;21.03;;
13866;SDS011;7003;46.982;15.248;2022-11-15T02:12:41;31.20;;;21.33;;
13866;SDS011;7003;46.982;15.248;2022-11-15T02:15:09;28.70;;;21.10;;
13866;SDS011;7003;46.982;15.248;2022-11-15T02:17:46;29.30;;;18.87;;
13866;SDS011;7003;46.982;15.248;2022-11-15T02:20:28;29.20;;;19.37;;
13866;SDS011;7003;46.982;15.248;2022-11-15T02:23:24;28.30;;;17.80;;
13866;SDS011;7003;46.982;15.248;2022-11-15T02:26:19;29.17;;;16.17;;
13866;SDS011;7003;46.982;15.248;2022-11-15T02:29:13;24.20;;;16.30;;
13866;SDS011;7003;46.982;15.248;2022-11-15T02:31:51;24.80;;;17.20;;
13866;SDS011;7003;46.982;15.248;2022-11-15T02:34:33;20.37;;;14.27;;
13866;SDS011;7003;46.982;15.248;2022-11-15T02:37:10;24.63;;;17.40;;
13866;SDS011;7003;46.982;15.248;2022-11-15T02:39:46;27.60;;;15.70;;
13866;SDS011;7003;46.982;15.248;2022-11-15T02:42:19;29.07;;;16.60;;
13866;SDS011;7003;46.982;15.248;2022-11-15T02:45:08;29.97;;;16.13;;
13866;SDS011;7003;46.982;15.248;2022-11-15T02:47:44;24.10;;;13.87;;
13866;SDS011;7003;46.982;15.248;2022-11-15T02:50:18;35.97;;;20.73;;
13866;SDS011;7003;46.982;15.248;2022-11-15T02:52:48;39.37;;;15.00;;
13866;SDS011;7003;46.982;15.248;2022-11-15T02:55:26;30.87;;;14.47;;
13866;SDS011;7003;46.982;15.248;2022-11-15T02:57:59;34.50;;;13.33;;
13866;SDS011;7003;46.982;15.248;2022-11-15T03:00:50;30.23;;;16.53;;
13866;SDS011;7003;46.982;15.248;2022-11-15T03:06:26;29.70;;;15.70;;
13866;SDS011;7003;46.982;15.248;2022-11-15T03:09:02;23.33;;;14.40;;
13866;SDS011;7003;46.982;15.248;2022-11-15T03:11:37;26.53;;;16.23;;
13866;SDS011;7003;46.982;15.248;2022-11-15T03:14:11;23.30;;;15.97;;
13866;SDS011;7003;46.982;15.248;2022-11-15T03:16:51;23.13;;;17.13;;
13866;SDS011;7003;46.982;15.248;2022-11-15T03:19:28;20.83;;;14.73;;
13866;SDS011;7003;46.982;15.248;2022-11-15T03:22:02;35.83;;;16.90;;
13866;SDS011;7003;46.982;15.248;2022-11-15T03:24:36;25.17;;;14.40;;
13866;SDS011;7003;46.982;15.248;2022-11-15T03:27:05;32.37;;;15.27;;
13866;SDS011;7003;46.982;15.248;2022-11-15T03:29:37;26.27;;;15.70;;
13866;SDS011;7003;46.982;15.248;2022-11-15T03:32:09;19.47;;;14.50;;
13866;SDS011;7003;46.982;15.248;2022-11-15T03:34:44;23.83;;;17.60;;
13866;SDS011;7003;46.982;15.248;2022-11-15T03:37:20;21.43;;;16.90;;
13866;SDS011;7003;46.982;15.248;2022-11-15T03:39:51;19.33;;;14.23;;
13866;SDS011;7003;46.982;15.248;2022-11-15T03:42:20;32.93;;;14.17;;
13866;SDS011;7003;46.982;15.248;2022-11-15T03:44:57;24.40;;;14.97;;
13866;SDS011;7003;46.982;15.248;2022-11-15T03:47:32;23.63;;;14.67;;
13866;SDS011;7003;46.982;15.248;2022-11-15T03:50:07;28.43;;;13.57;;
13866;SDS011;7003;46.982;15.248;2022-11-15T03:52:37;19.10;;;14.13;;
13866;SDS011;7003;46.982;15.248;2022-11-15T03:55:06;27.17;;;15.67;;
13866;SDS011;7003;46.982;15.248;2022-11-15T03:57:37;21.37;;;12.43;;
13866;SDS011;7003;46.982;15.248;2022-11-15T04:00:04;22.10;;;14.80;;
13866;SDS011;7003;46.982;15.248;2022-11-15T04:02:32;22.00;;;13.60;;
13866;SDS011;7003;46.982;15.248;2022-11-15T04:05:00;33.33;;;16.63;;
13866;SDS011;7003;46.982;15.248;2022-11-15T04:07:29;26.23;;;14.43;;
13866;SDS011;7003;46.982;15.248;2022-11-15T04:09:56;23.90;;;15.27;;
13866;SDS011;7003;46.982;15.248;2022-11-15T04:12:31;21.93;;;15.50;;
13866;SDS011;7003;46.982;15.248;2022-11-15T04:14:59;22.73;;;16.97;;
13866;SDS011;7003;46.982;15.248;2022-11-15T04:17:35;25.60;;;15.23;;
13866;SDS011;7003;46.982;15.248;2022-11-15T04:20:03;22.53;;;14.20;;
13866;SDS011;7003;46.982;15.248;2022-11-15T04:22:53;26.43;;;15.37;;
13866;SDS011;7003;46.982;15.248;2022-11-15T04:25:38;31.10;;;16.97;;
13866;SDS011;7003;46.982;15.248;2022-11-15T04:28:08;22.90;;;15.30;;
13866;SDS011;7003;46.982;15.248;2022-11-15T04:30:38;17.53;;;13.40;;
13866;SDS011;7003;46.982;15.248;2022-11-15T04:33:05;21.67;;;14.33;;
13866;SDS011;7003;46.982;15.248;2022-11-15T04:35:32;30.10;;;17.23;;
13866;SDS011;7003;46.982;15.248;2022-11-15T04:38:01;22.17;;;15.90;;
13866;SDS011;7003;46.982;15.248;2022-11-15T04:40:29;21.23;;;14.43;;
13866;SDS011;7003;46.982;15.248;2022-11-15T04:42:56;30.63;;;17.63;;
13866;SDS011;7003;46.982;15.248;2022-11-15T04:45:24;22.37;;;14.57;;
13866;SDS011;7003;46.982;15.248;2022-11-15T04:47:51;26.87;;;16.63;;
13866;SDS011;7003;46.982;15.248;2022-11-15T04:50:20;26.13;;;16.20;;
13866;SDS011;7003;46.982;15.248;2022-11-15T04:52:50;35.67;;;16.97;;
13866;SDS011;7003;46.982;15.248;2022-11-15T04:55:22;25.77;;;16.00;;
13866;SDS011;7003;46.982;15.248;2022-11-15T04:57:58;26.60;;;16.80;;
13866;SDS011;7003;46.982;15.248;2022-11-15T05:00:26;34.17;;;18.17;;
13866;SDS011;7003;46.982;15.248;2022-11-15T05:02:54;23.50;;;15.77;;
13866;SDS011;7003;46.982;15.248;2022-11-15T05:05:39;19.83;;;14.70;;
13866;SDS011;7003;46.982;15.248;2022-11-15T05:08:06;39.80;;;17.37;;
13866;SDS011;7003;46.982;15.248;2022-11-15T05:10:34;22.73;;;14.60;;
13866;SDS011;7003;46.982;15.248;2022-11-15T05:13:01;25.53;;;15.60;;
13866;SDS011;7003;46.982;15.248;2022-11-15T05:15:31;24.90;;;16.73;;
13866;SDS011;7003;46.982;15.248;2022-11-15T05:17:58;25.73;;;17.00;;
13866;SDS011;7003;46.982;15.248;2022-11-15T05:20:28;26.73;;;17.00;;
13866;SDS011;7003;46.982;15.248;2022-11-15T05:22:57;22.30;;;15.27;;
13866;SDS011;7003;46.982;15.248;2022-11-15T05:25:25;25.40;;;17.50;;
13866;SDS011;7003;46.982;15.248;2022-11-15T05:27:56;20.00;;;15.63;;
13866;SDS011;7003;46.982;15.248;2022-11-15T05:30:23;26.67;;;15.60;;
13866;SDS011;7003;46.982;15.248;2022-11-15T05:32:50;26.70;;;16.70;;
13866;SDS011;7003;46.982;15.248;2022-11-15T05:35:18;21.33;;;16.27;;
13866;SDS011;7003;46.982;15.248;2022-11-15T05:37:53;29.40;;;17.87;;
13866;SDS011;7003;46.982;15.248;2022-11-15T05:40:23;25.07;;;16.03;;
13866;SDS011;7003;46.982;15.248;2022-11-15T05:42:53;36.37;;;17.73;;
13866;SDS011;7003;46.982;15.248;2022-11-15T05:45:22;21.27;;;16.07;;
13866;SDS011;7003;46.982;15.248;2022-11-15T05:47:49;37.10;;;18.77;;
13866;SDS011;7003;46.982;15.248;2022-11-15T05:50:18;21.50;;;16.17;;
13866;SDS011;7003;46.982;15.248;2022-11-15T05:52:48;27.23;;;19.30;;
13866;SDS011;7003;46.982;15.248;2022-11-15T05:55:18;21.43;;;16.67;;
13866;SDS011;7003;46.982;15.248;2022-11-15T05:57:46;21.20;;;15.20;;
13866;SDS011;7003;46.982;15.248;2022-11-15T06:00:14;21.23;;;15.17;;
13866;SDS011;7003;46.982;15.248;2022-11-15T06:02:44;23.10;;;15.27;;
13866;SDS011;7003;46.982;15.248;2022-11-15T06:05:12;20.17;;;15.57;;
13866;SDS011;7003;46.982;15.248;2022-11-15T06:07:40;23.80;;;17.90;;
13866;SDS011;7003;46.982;15.248;2022-11-15T06:10:10;24.47;;;15.43;;
13866;SDS011;7003;46.982;15.248;2022-11-15T06:12:40;26.40;;;13.70;;
13866;SDS011;7003;46.982;15.248;2022-11-15T06:15:09;21.60;;;14.70;;
13866;SDS011;7003;46.982;15.248;2022-11-15T06:17:39;21.30;;;16.20;;
13866;SDS011;7003;46.982;15.248;2022-11-15T06:20:11;22.63;;;16.67;;
13866;SDS011;7003;46.982;15.248;2022-11-15T06:22:39;19.07;;;14.23;;
13866;SDS011;7003;46.982;15.248;2022-11-15T06:25:08;24.77;;;14.40;;
13866;SDS011;7003;46.982;15.248;2022-11-15T06:27:36;23.23;;;15.90;;
13866;SDS011;7003;46.982;15.248;2022-11-15T06:30:06;23.27;;;16.03;;
13866;SDS011;7003;46.982;15.248;2022-11-15T06:32:37;20.30;;;16.00;;
13866;SDS011;7003;46.982;15.248;2022-11-15T06:35:14;23.23;;;17.77;;
13866;SDS011;7003;46.982;15.248;2022-11-15T06:37:43;22.37;;;17.40;;
13866;SDS011;7003;46.982;15.248;2022-11-15T06:40:12;19.23;;;14.30;;
13866;SDS011;7003;46.982;15.248;2022-11-15T06:42:41;22.67;;;16.13;;
13866;SDS011;7003;46.982;15.248;2022-11-15T06:45:14;21.60;;;15.87;;
13866;SDS011;7003;46.982;15.248;2022-11-15T06:47:46;20.20;;;15.43;;
13866;SDS011;7003;46.982;15.248;2022-11-15T06:50:18;25.53;;;15.23;;
13866;SDS011;7003;46.982;15.248;2022-11-15T06:52:46;22.30;;;16.27;;
13866;SDS011;7003;46.982;15.248;2022-11-15T06:55:15;18.27;;;14.57;;
13866;SDS011;7003;46.982;15.248;2022-11-15T06:57:47;20.93;;;15.53;;
13866;SDS011;7003;46.982;15.248;2022-11-15T07:00:18;21.67;;;14.60;;
13866;SDS011;7003;46.982;15.248;2022-11-15T07:02:48;24.90;;;16.27;;
13866;SDS011;7003;46.982;15.248;2022-11-15T07:05:18;23.87;;;16.53;;
13866;SDS011;7003;46.982;15.248;2022-11-15T07:07:51;24.03;;;17.03;;
13866;SDS011;7003;46.982;15.248;2022-11-15T07:10:24;25.03;;;16.03;;
13866;SDS011;7003;46.982;15.248;2022-11-15T07:12:53;27.03;;;16.60;;
13866;SDS011;7003;46.982;15.248;2022-11-15T07:15:25;24.20;;;17.60;;
13866;SDS011;7003;46.982;15.248;2022-11-15T07:17:55;28.37;;;16.80;;
13866;SDS011;7003;46.982;15.248;2022-11-15T07:20:25;27.10;;;17.70;;
13866;SDS011;7003;46.982;15.248;2022-11-15T07:22:59;30.53;;;17.50;;
13866;SDS011;7003;46.982;15.248;2022-11-15T07:25:29;22.60;;;17.33;;
13866;SDS011;7003;46.982;15.248;2022-11-15T07:28:00;23.77;;;18.20;;
13866;SDS011;7003;46.982;15.248;2022-11-15T07:30:32;29.90;;;17.47;;
13866;SDS011;7003;46.982;15.248;2022-11-15T07:33:01;24.83;;;16.20;;
13866;SDS011;7003;46.982;15.248;2022-11-15T07:35:31;26.57;;;16.80;;
13866;SDS011;7003;46.982;15.248;2022-11-15T07:38:01;22.43;;;16.10;;
13866;SDS011;7003;46.982;15.248;2022-11-15T07:40:31;27.63;;;17.40;;
13866;SDS011;7003;46.982;15.248;2022-11-15T07:43:01;24.70;;;16.73;;
13866;SDS011;7003;46.982;15.248;2022-11-15T07:45:31;26.97;;;17.77;;
13866;SDS011;7003;46.982;15.248;2022-11-15T07:48:02;29.80;;;20.37;;
13866;SDS011;7003;46.982;15.248;2022-11-15T07:50:32;23.03;;;16.63;;
13866;SDS011;7003;46.982;15.248;2022-11-15T07:53:01;33.57;;;18.40;;
13866;SDS011;7003;46.982;15.248;2022-11-15T07:55:29;27.23;;;17.23;;
13866;SDS011;7003;46.982;15.248;2022-11-15T07:58:01;26.63;;;15.93;;
13866;SDS011;7003;46.982;15.248;2022-11-15T08:00:31;30.70;;;17.30;;
13866;SDS011;7003;46.982;15.248;2022-11-15T08:03:03;28.30;;;17.70;;
13866;SDS011;7003;46.982;15.248;2022-11-15T08:05:35;29.50;;;19.30;;
13866;SDS011;7003;46.982;15.248;2022-11-15T08:08:07;36.17;;;15.97;;
13866;SDS011;7003;46.982;15.248;2022-11-15T08:10:38;35.33;;;18.33;;
13866;SDS011;7003;46.982;15.248;2022-11-15T08:13:10;29.80;;;17.93;;
13866;SDS011;7003;46.982;15.248;2022-11-15T08:15:40;24.17;;;17.73;;
13866;SDS011;7003;46.982;15.248;2022-11-15T08:18:12;22.23;;;16.60;;
13866;SDS011;7003;46.982;15.248;2022-11-15T08:20:44;23.67;;;15.40;;
13866;SDS011;7003;46.982;15.248;2022-11-15T08:23:16;30.20;;;17.73;;
13866;SDS011;7003;46.982;15.248;2022-11-15T08:25:44;26.50;;;15.60;;
13866;SDS011;7003;46.982;15.248;2022-11-15T08:28:13;45.37;;;19.87;;
13866;SDS011;7003;46.982;15.248;2022-11-15T08:30:47;27.60;;;20.47;;
13866;SDS011;7003;46.982;15.248;2022-11-15T08:33:16;29.63;;;17.33;;
13866;SDS011;7003;46.982;15.248;2022-11-15T08:35:46;33.47;;;19.90;;
13866;SDS011;7003;46.982;15.248;2022-11-15T08:38:16;27.97;;;17.33;;
13866;SDS011;7003;46.982;15.248;2022-11-15T08:40:45;27.87;;;18.07;;
13866;SDS011;7003;46.982;15.248;2022-11-15T08:43:14;37.33;;;23.03;;
13866;SDS011;7003;46.982;15.248;2022-11-15T08:45:43;33.60;;;20.47;;
13866;SDS011;7003;46.982;15.248;2022-11-15T08:48:13;30.93;;;18.60;;
13866;SDS011;7003;46.982;15.248;2022-11-15T08:50:44;30.97;;;18.03;;
13866;SDS011;7003;46.982;15.248;2022-11-15T08:53:18;32.97;;;20.73;;
13866;SDS011;7003;46.982;15.248;2022-11-15T08:55:51;31.83;;;18.20;;
13866;SDS011;7003;46.982;15.248;2022-11-15T08:58:20;28.93;;;17.97;;
13866;SDS011;7003;46.982;15.248;2022-11-15T09:00:51;31.03;;;19.23;;
13866;SDS011;7003;46.982;15.248;2022-11-15T09:03:20;29.57;;;16.77;;
13866;SDS011;7003;46.982;15.248;2022-11-15T09:05:51;34.83;;;22.13;;
13866;SDS011;7003;46.982;15.248;2022-11-15T09:08:23;32.00;;;18.33;;
13866;SDS011;7003;46.982;15.248;2022-11-15T09:10:56;32.90;;;19.47;;
13866;SDS011;7003;46.982;15.248;2022-11-15T09:13:29;29.80;;;18.47;;
13866;SDS011;7003;46.982;15.248;2022-11-15T09:15:58;28.47;;;20.43;;
13866;SDS011;7003;46.982;15.248;2022-11-15T09:18:29;31.60;;;21.00;;
13866;SDS011;7003;46.982;15.248;2022-11-15T09:21:06;36.57;;;22.20;;
13866;SDS011;7003;46.982;15.248;2022-11-15T09:23:39;29.60;;;19.10;;
13866;SDS011;7003;46.982;15.248;2022-11-15T09:26:13;35.65;;;20.48;;
13866;SDS011;7003;46.982;15.248;2022-11-15T09:28:43;30.13;;;19.60;;
13866;SDS011;7003;46.982;15.248;2022-11-15T09:31:13;30.97;;;20.40;;
13866;SDS011;7003;46.982;15.248;2022-11-15T09:33:45;36.90;;;20.10;;
13866;SDS011;7003;46.982;15.248;2022-11-15T09:36:18;29.67;;;19.48;;
13866;SDS011;7003;46.982;15.248;2022-11-15T09:38:49;26.60;;;17.47;;
13866;SDS011;7003;46.982;15.248;2022-11-15T09:44:24;36.10;;;20.40;;
13866;SDS011;7003;46.982;15.248;2022-11-15T09:47:05;25.60;;;18.73;;
13866;SDS011;7003;46.982;15.248;2022-11-15T09:49:51;26.80;;;18.60;;
13866;SDS011;7003;46.982;15.248;2022-11-15T09:52:26;38.13;;;21.45;;
13866;SDS011;7003;46.982;15.248;2022-11-15T09:54:58;32.80;;;17.20;;
13866;SDS011;7003;46.982;15.248;2022-11-15T09:57:30;35.08;;;19.33;;
13866;SDS011;7003;46.982;15.248;2022-11-15T10:00:08;31.10;;;18.27;;
13866;SDS011;7003;46.982;15.248;2022-11-15T10:02:46;30.17;;;18.45;;
13866;SDS011;7003;46.982;15.248;2022-11-15T10:05:37;34.25;;;20.67;;
13866;SDS011;7003;46.982;15.248;2022-11-15T10:08:13;30.50;;;19.50;;
13866;SDS011;7003;46.982;15.248;2022-11-15T10:10:57;25.75;;;17.00;;
13866;SDS011;7003;46.982;15.248;2022-11-15T10:13:30;31.50;;;19.50;;
13866;SDS011;7003;46.982;15.248;2022-11-15T10:16:04;30.70;;;17.85;;
13866;SDS011;7003;46.982;15.248;2022-11-15T10:18:47;30.92;;;19.02;;
13866;SDS011;7003;46.982;15.248;2022-11-15T10:21:24;24.17;;;16.50;;
13866;SDS011;7003;46.982;15.248;2022-11-15T10:24:06;30.25;;;18.58;;
13866;SDS011;7003;46.982;15.248;2022-11-15T10:26:45;28.10;;;18.25;;
13866;SDS011;7003;46.982;15.248;2022-11-15T10:29:19;31.30;;;21.30;;
13866;SDS011;7003;46.982;15.248;2022-11-15T10:31:49;28.45;;;19.38;;
13866;SDS011;7003;46.982;15.248;2022-11-15T10:34:25;37.38;;;22.17;;
13866;SDS011;7003;46.982;15.248;2022-11-15T10:36:59;25.58;;;17.90;;
13866;SDS011;7003;46.982;15.248;2022-11-15T10:39:31;28.17;;;17.88;;
13866;SDS011;7003;46.982;15.248;2022-11-15T10:42:16;33.70;;;20.70;;
13866;SDS011;7003;46.982;15.248;2022-11-15T10:44:45;28.60;;;17.10;;
13866;SDS011;7003;46.982;15.248;2022-11-15T10:47:26;35.63;;;19.27;;
13866;SDS011;7003;46.982;15.248;2022-11-15T10:50:01;27.25;;;16.20;;
13866;SDS011;7003;46.982;15.248;2022-11-15T10:52:36;23.67;;;14.98;;
13866;SDS011;7003;46.982;15.248;2022-11-15T10:55:23;27.50;;;15.43;;
13866;SDS011;7003;46.982;15.248;2022-11-15T10:57:56;31.20;;;18.27;;
13866;SDS011;7003;46.982;15.248;2022-11-15T11:00:34;30.50;;;17.90;;
13866;SDS011;7003;46.982;15.248;2022-11-15T11:03:08;25.52;;;16.75;;
13866;SDS011;7003;46.982;15.248;2022-11-15T11:06:05;24.10;;;18.70;;
13866;SDS011;7003;46.982;15.248;2022-11-15T11:08:36;29.10;;;16.65;;
13866;SDS011;7003;46.982;15.248;2022-11-15T11:11:09;30.63;;;17.63;;
13866;SDS011;7003;46.982;15.248;2022-11-15T11:13:40;23.73;;;16.38;;
13866;SDS011;7003;46.982;15.248;2022-11-15T11:19:15;27.42;;;16.63;;
13866;SDS011;7003;46.982;15.248;2022-11-15T11:22:05;26.92;;;17.27;;
13866;SDS011;7003;46.982;15.248;2022-11-15T11:24:41;26.38;;;15.95;;
13866;SDS011;7003;46.982;15.248;2022-11-15T11:27:24;23.00;;;14.80;;
13866;SDS011;7003;46.982;15.248;2022-11-15T11:30:06;34.30;;;17.70;;
13866;SDS011;7003;46.982;15.248;2022-11-15T11:35:45;30.58;;;17.92;;
13866;SDS011;7003;46.982;15.248;2022-11-15T11:38:34;29.92;;;16.92;;
13866;SDS011;7003;46.982;15.248;2022-11-15T11:41:16;25.77;;;17.73;;
13866;SDS011;7003;46.982;15.248;2022-11-15T11:43:57;23.83;;;14.60;;
13866;SDS011;7003;46.982;15.248;2022-11-15T11:46:47;23.35;;;15.38;;
13866;SDS011;7003;46.982;15.248;2022-11-15T11:49:21;27.35;;;15.95;;
13866;SDS011;7003;46.982;15.248;2022-11-15T11:51:56;28.58;;;16.63;;
13866;SDS011;7003;46.982;15.248;2022-11-15T11:54:35;27.33;;;16.55;;
13866;SDS011;7003;46.982;15.248;2022-11-15T11:57:12;40.22;;;21.15;;
13866;SDS011;7003;46.982;15.248;2022-11-15T11:59:55;32.03;;;18.85;;
13866;SDS011;7003;46.982;15.248;2022-11-15T12:02:31;34.70;;;18.95;;
13866;SDS011;7003;46.982;15.248;2022-11-15T12:05:08;28.42;;;18.02;;
13866;SDS011;7003;46.982;15.248;2022-11-15T12:07:43;25.13;;;16.95;;
13866;SDS011;7003;46.982;15.248;2022-11-15T12:10:20;26.90;;;17.02;;
13866;SDS011;7003;46.982;15.248;2022-11-15T12:12:55;24.45;;;16.65;;
13866;SDS011;7003;46.982;15.248;2022-11-15T12:15:31;25.75;;;17.48;;
13866;SDS011;7003;46.982;15.248;2022-11-15T12:18:04;29.17;;;16.45;;
13866;SDS011;7003;46.982;15.248;2022-11-15T12:20:42;31.20;;;17.13;;
13866;SDS011;7003;46.982;15.248;2022-11-15T12:23:21;32.20;;;16.55;;
13866;SDS011;7003;46.982;15.248;2022-11-15T12:25:55;26.17;;;17.00;;
13866;SDS011;7003;46.982;15.248;2022-11-15T12:28:34;24.40;;;16.83;;
13866;SDS011;7003;46.982;15.248;2022-11-15T12:31:14;22.90;;;16.10;;
13866;SDS011;7003;46.982;15.248;2022-11-15T12:33:49;26.02;;;17.08;;
13866;SDS011;7003;46.982;15.248;2022-11-15T12:36:30;33.35;;;16.55;;
13866;SDS011;7003;46.982;15.248;2022-11-15T12:39:05;23.40;;;15.07;;
13866;SDS011;7003;46.982;15.248;2022-11-15T12:41:39;35.38;;;18.95;;
13866;SDS011;7003;46.982;15.248;2022-11-15T12:44:56;30.58;;;18.35;;
13866;SDS011;7003;46.982;15.248;2022-11-15T12:47:24;31.75;;;17.35;;
13866;SDS011;7003;46.982;15.248;2022-11-15T12:49:55;31.15;;;16.80;;
13866;SDS011;7003;46.982;15.248;2022-11-15T12:52:27;23.95;;;15.88;;
13866;SDS011;7003;46.982;15.248;2022-11-15T12:55:01;25.08;;;16.83;;
13866;SDS011;7003;46.982;15.248;2022-11-15T12:57:52;27.83;;;18.33;;
13866;SDS011;7003;46.982;15.248;2022-11-15T13:03:28;28.15;;;15.40;;
13866;SDS011;7003;46.982;15.248;2022-11-15T13:06:33;28.95;;;16.02;;
13866;SDS011;7003;46.982;15.248;2022-11-15T13:12:51;30.95;;;19.05;;
13866;SDS011;7003;46.982;15.248;2022-11-15T13:18:35;34.78;;;16.65;;
13866;SDS011;7003;46.982;15.248;2022-11-15T13:24:15;33.35;;;17.73;;
13866;SDS011;7003;46.982;15.248;2022-11-15T13:26:45;29.67;;;18.35;;
13866;SDS011;7003;46.982;15.248;2022-11-15T13:29:14;29.35;;;18.52;;
13866;SDS011;7003;46.982;15.248;2022-11-15T13:31:45;31.60;;;17.67;;
13866;SDS011;7003;46.982;15.248;2022-11-15T13:34:24;25.88;;;18.20;;
13866;SDS011;7003;46.982;15.248;2022-11-15T13:36:55;27.23;;;16.10;;
13866;SDS011;7003;46.982;15.248;2022-11-15T13:39:29;23.88;;;16.25;;
13866;SDS011;7003;46.982;15.248;2022-11-15T13:42:00;25.50;;;15.18;;
13866;SDS011;7003;46.982;15.248;2022-11-15T13:44:30;29.02;;;16.13;;
13866;SDS011;7003;46.982;15.248;2022-11-15T13:47:00;25.35;;;14.73;;
13866;SDS011;7003;46.982;15.248;2022-11-15T13:49:32;24.70;;;14.48;;
13866;SDS011;7003;46.982;15.248;2022-11-15T13:52:01;27.27;;;15.95;;
13866;SDS011;7003;46.982;15.248;2022-11-15T13:54:34;20.77;;;13.85;;
13866;SDS011;7003;46.982;15.248;2022-11-15T13:57:12;24.55;;;15.38;;
13866;SDS011;7003;46.982;15.248;2022-11-15T13:59:49;20.88;;;14.68;;
13866;SDS011;7003;46.982;15.248;2022-11-15T14:02:21;24.17;;;15.88;;
13866;SDS011;7003;46.982;15.248;2022-11-15T14:04:56;22.08;;;15.02;;
13866;SDS011;7003;46.982;15.248;2022-11-15T14:07:29;23.15;;;14.23;;
13866;SDS011;7003;46.982;15.248;2022-11-15T14:09:59;22.45;;;14.73;;
13866;SDS011;7003;46.982;15.248;2022-11-15T14:12:53;23.73;;;14.43;;
13866;SDS011;7003;46.982;15.248;2022-11-15T14:15:28;26.17;;;14.70;;
13866;SDS011;7003;46.982;15.248;2022-11-15T14:17:59;27.50;;;14.15;;
13866;SDS011;7003;46.982;15.248;2022-11-15T14:20:33;26.48;;;15.25;;
13866;SDS011;7003;46.982;15.248;2022-11-15T14:23:04;27.20;;;14.52;;
13866;SDS011;7003;46.982;15.248;2022-11-15T14:25:51;25.92;;;14.50;;
13866;SDS011;7003;46.982;15.248;2022-11-15T14:28:28;22.15;;;13.52;;
13866;SDS011;7003;46.982;15.248;2022-11-15T14:31:01;28.23;;;16.83;;
13866;SDS011;7003;46.982;15.248;2022-11-15T14:33:35;26.52;;;16.63;;
13866;SDS011;7003;46.982;15.248;2022-11-15T14:36:11;27.42;;;15.57;;
13866;SDS011;7003;46.982;15.248;2022-11-15T14:38:40;24.98;;;14.13;;
13866;SDS011;7003;46.982;15.248;2022-11-15T14:41:10;27.42;;;17.00;;
13866;SDS011;7003;46.982;15.248;2022-11-15T14:43:47;21.90;;;14.13;;
13866;SDS011;7003;46.982;15.248;2022-11-15T14:46:15;29.40;;;13.88;;
13866;SDS011;7003;46.982;15.248;2022-11-15T14:48:44;22.52;;;15.07;;
13866;SDS011;7003;46.982;15.248;2022-11-15T14:51:18;32.67;;;19.20;;
13866;SDS011;7003;46.982;15.248;2022-11-15T14:53:48;30.90;;;17.48;;
13866;SDS011;7003;46.982;15.248;2022-11-15T14:56:17;22.40;;;15.23;;
13866;SDS011;7003;46.982;15.248;2022-11-15T14:58:45;24.63;;;14.68;;
13866;SDS011;7003;46.982;15.248;2022-11-15T15:01:17;29.60;;;15.95;;
13866;SDS011;7003;46.982;15.248;2022-11-15T15:03:49;24.20;;;15.55;;
13866;SDS011;7003;46.982;15.248;2022-11-15T15:06:22;28.52;;;15.43;;
13866;SDS011;7003;46.982;15.248;2022-11-15T15:08:50;17.60;;;12.30;;
13866;SDS011;7003;46.982;15.248;2022-11-15T15:11:20;21.45;;;13.57;;
13866;SDS011;7003;46.982;15.248;2022-11-15T15:13:50;25.40;;;16.75;;
13866;SDS011;7003;46.982;15.248;2022-11-15T15:16:21;21.73;;;14.90;;
13866;SDS011;7003;46.982;15.248;2022-11-15T15:18:49;23.40;;;13.13;;